sensor_id;sensor_type;location;lat;lon;timestamp;temperature;humidity
65245;DHT22;51846;48.692;2.382;2023-08-30T00:00:47;15.93;76.98
65245;DHT22;51846;48.692;2.382;2023-08-30T00:03:13;15.71;77.78
65245;DHT22;51846;48.692;2.382;2023-08-30T00:05:40;15.50;78.46
65245;DHT22;51846;48.692;2.382;2023-08-30T00:08:05;15.40;78.87
65245;DHT22;51846;48.692;2.382;2023-08-30T00:10:31;15.33;79.11
65245;DHT22;51846;48.692;2.382;2023-08-30T00:12:57;15.63;78.28
65245;DHT22;51846;48.692;2.382;2023-08-30T00:15:22;15.81;77.66
65245;DHT22;51846;48.692;2.382;2023-08-30T00:17:48;15.90;77.25
65245;DHT22;51846;48.692;2.382;2023-08-30T00:20:13;15.63;78.02
65245;DHT22;51846;48.692;2.382;2023-08-30T00:22:39;15.55;78.49
65245;DHT22;51846;48.692;2.382;2023-08-30T00:25:05;15.61;78.30
65245;DHT22;51846;48.692;2.382;2023-08-30T00:27:30;15.54;78.51
65245;DHT22;51846;48.692;2.382;2023-08-30T00:29:55;15.73;77.94
65245;DHT22;51846;48.692;2.382;2023-08-30T00:32:21;15.78;77.58
65245;DHT22;51846;48.692;2.382;2023-08-30T00:34:49;15.81;77.44
65245;DHT22;51846;48.692;2.382;2023-08-30T00:37:15;15.85;77.29
65245;DHT22;51846;48.692;2.382;2023-08-30T00:39:40;15.87;77.27
65245;DHT22;51846;48.692;2.382;2023-08-30T00:42:06;15.85;77.14
65245;DHT22;51846;48.692;2.382;2023-08-30T00:44:33;15.83;77.24
65245;DHT22;51846;48.692;2.382;2023-08-30T00:47:02;15.85;77.18
65245;DHT22;51846;48.692;2.382;2023-08-30T00:49:30;15.85;77.03
65245;DHT22;51846;48.692;2.382;2023-08-30T00:51:57;15.73;77.40
65245;DHT22;51846;48.692;2.382;2023-08-30T00:54:22;15.74;77.22
65245;DHT22;51846;48.692;2.382;2023-08-30T00:56:48;15.32;78.48
65245;DHT22;51846;48.692;2.382;2023-08-30T00:59:13;15.47;78.19
65245;DHT22;51846;48.692;2.382;2023-08-30T01:01:40;15.29;78.42
65245;DHT22;51846;48.692;2.382;2023-08-30T01:04:05;15.13;79.20
65245;DHT22;51846;48.692;2.382;2023-08-30T01:06:31;14.96;79.49
65245;DHT22;51846;48.692;2.382;2023-08-30T01:08:56;14.99;79.53
65245;DHT22;51846;48.692;2.382;2023-08-30T01:11:32;15.20;78.94
65245;DHT22;51846;48.692;2.382;2023-08-30T01:14:12;15.36;78.44
65245;DHT22;51846;48.692;2.382;2023-08-30T01:16:38;15.42;78.12
65245;DHT22;51846;48.692;2.382;2023-08-30T01:19:24;15.34;78.17
65245;DHT22;51846;48.692;2.382;2023-08-30T01:22:08;15.42;77.93
65245;DHT22;51846;48.692;2.382;2023-08-30T01:27:40;15.36;78.24
65245;DHT22;51846;48.692;2.382;2023-08-30T01:30:07;15.32;78.17
65245;DHT22;51846;48.692;2.382;2023-08-30T01:32:34;15.19;78.78
65245;DHT22;51846;48.692;2.382;2023-08-30T01:35:01;15.30;78.26
65245;DHT22;51846;48.692;2.382;2023-08-30T01:37:27;15.37;78.27
65245;DHT22;51846;48.692;2.382;2023-08-30T01:39:54;15.16;78.69
65245;DHT22;51846;48.692;2.382;2023-08-30T01:42:22;15.26;78.59
65245;DHT22;51846;48.692;2.382;2023-08-30T01:44:49;15.37;78.43
65245;DHT22;51846;48.692;2.382;2023-08-30T01:47:15;15.42;78.16
65245;DHT22;51846;48.692;2.382;2023-08-30T01:49:42;15.42;78.11
65245;DHT22;51846;48.692;2.382;2023-08-30T01:52:09;15.43;78.18
65245;DHT22;51846;48.692;2.382;2023-08-30T01:54:36;15.49;78.03
65245;DHT22;51846;48.692;2.382;2023-08-30T01:57:02;15.50;78.03
65245;DHT22;51846;48.692;2.382;2023-08-30T01:59:29;15.46;78.02
65245;DHT22;51846;48.692;2.382;2023-08-30T02:01:54;15.50;78.30
65245;DHT22;51846;48.692;2.382;2023-08-30T02:04:20;15.34;78.51
65245;DHT22;51846;48.692;2.382;2023-08-30T02:06:57;15.37;78.58
65245;DHT22;51846;48.692;2.382;2023-08-30T02:09:28;15.40;78.40
65245;DHT22;51846;48.692;2.382;2023-08-30T02:11:55;15.40;78.35
65245;DHT22;51846;48.692;2.382;2023-08-30T02:14:23;15.46;78.28
65245;DHT22;51846;48.692;2.382;2023-08-30T02:16:51;15.47;78.23
65245;DHT22;51846;48.692;2.382;2023-08-30T02:19:16;15.51;78.13
65245;DHT22;51846;48.692;2.382;2023-08-30T02:21:46;15.49;78.11
65245;DHT22;51846;48.692;2.382;2023-08-30T02:24:11;15.50;78.01
65245;DHT22;51846;48.692;2.382;2023-08-30T02:26:36;15.49;78.08
65245;DHT22;51846;48.692;2.382;2023-08-30T02:29:02;15.50;78.04
65245;DHT22;51846;48.692;2.382;2023-08-30T02:31:27;15.55;78.00
65245;DHT22;51846;48.692;2.382;2023-08-30T02:33:54;15.55;77.96
65245;DHT22;51846;48.692;2.382;2023-08-30T02:36:19;15.55;77.95
65245;DHT22;51846;48.692;2.382;2023-08-30T02:38:44;15.37;78.39
65245;DHT22;51846;48.692;2.382;2023-08-30T02:41:10;15.43;78.31
65245;DHT22;51846;48.692;2.382;2023-08-30T02:43:35;15.18;78.82
65245;DHT22;51846;48.692;2.382;2023-08-30T02:46:01;14.98;79.22
65245;DHT22;51846;48.692;2.382;2023-08-30T02:48:28;14.90;79.48
65245;DHT22;51846;48.692;2.382;2023-08-30T02:50:54;14.80;79.85
65245;DHT22;51846;48.692;2.382;2023-08-30T02:53:19;15.06;79.19
65245;DHT22;51846;48.692;2.382;2023-08-30T02:55:49;14.78;79.57
65245;DHT22;51846;48.692;2.382;2023-08-30T02:58:14;14.85;79.49
65245;DHT22;51846;48.692;2.382;2023-08-30T03:00:40;14.79;79.62
65245;DHT22;51846;48.692;2.382;2023-08-30T03:03:05;14.99;79.14
65245;DHT22;51846;48.692;2.382;2023-08-30T03:05:30;15.14;78.83
65245;DHT22;51846;48.692;2.382;2023-08-30T03:07:56;15.23;78.41
65245;DHT22;51846;48.692;2.382;2023-08-30T03:10:21;15.04;78.40
65245;DHT22;51846;48.692;2.382;2023-08-30T03:12:46;14.88;78.98
65245;DHT22;51846;48.692;2.382;2023-08-30T03:15:12;14.92;78.82
65245;DHT22;51846;48.692;2.382;2023-08-30T03:17:37;14.96;78.79
65245;DHT22;51846;48.692;2.382;2023-08-30T03:20:03;14.89;78.65
65245;DHT22;51846;48.692;2.382;2023-08-30T03:22:31;15.12;78.43
65245;DHT22;51846;48.692;2.382;2023-08-30T03:24:57;15.22;77.95
65245;DHT22;51846;48.692;2.382;2023-08-30T03:27:23;15.30;77.79
65245;DHT22;51846;48.692;2.382;2023-08-30T03:29:48;15.09;78.21
65245;DHT22;51846;48.692;2.382;2023-08-30T03:32:16;15.18;78.12
65245;DHT22;51846;48.692;2.382;2023-08-30T03:34:44;15.07;78.01
65245;DHT22;51846;48.692;2.382;2023-08-30T03:37:10;14.90;78.64
65245;DHT22;51846;48.692;2.382;2023-08-30T03:39:35;14.79;78.80
65245;DHT22;51846;48.692;2.382;2023-08-30T03:42:00;15.03;78.47
65245;DHT22;51846;48.692;2.382;2023-08-30T03:44:26;15.20;78.10
65245;DHT22;51846;48.692;2.382;2023-08-30T03:46:51;14.93;78.70
65245;DHT22;51846;48.692;2.382;2023-08-30T03:49:16;14.93;78.68
65245;DHT22;51846;48.692;2.382;2023-08-30T03:51:42;14.93;78.83
65245;DHT22;51846;48.692;2.382;2023-08-30T03:54:07;15.06;78.55
65245;DHT22;51846;48.692;2.382;2023-08-30T03:56:36;15.12;78.28
65245;DHT22;51846;48.692;2.382;2023-08-30T03:59:01;15.09;78.29
65245;DHT22;51846;48.692;2.382;2023-08-30T04:01:27;14.99;78.51
65245;DHT22;51846;48.692;2.382;2023-08-30T04:03:52;15.00;78.58
65245;DHT22;51846;48.692;2.382;2023-08-30T04:06:17;15.20;78.40
65245;DHT22;51846;48.692;2.382;2023-08-30T04:08:43;15.16;78.43
65245;DHT22;51846;48.692;2.382;2023-08-30T04:11:09;15.34;77.98
65245;DHT22;51846;48.692;2.382;2023-08-30T04:13:34;15.37;77.98
65245;DHT22;51846;48.692;2.382;2023-08-30T04:16:00;15.46;78.22
65245;DHT22;51846;48.692;2.382;2023-08-30T04:18:25;15.49;78.35
65245;DHT22;51846;48.692;2.382;2023-08-30T04:20:51;15.51;79.07
65245;DHT22;51846;48.692;2.382;2023-08-30T04:23:16;15.47;79.14
65245;DHT22;51846;48.692;2.382;2023-08-30T04:25:42;15.49;79.75
65245;DHT22;51846;48.692;2.382;2023-08-30T04:28:09;15.47;79.73
65245;DHT22;51846;48.692;2.382;2023-08-30T04:30:36;15.47;79.57
65245;DHT22;51846;48.692;2.382;2023-08-30T04:33:02;15.42;80.06
65245;DHT22;51846;48.692;2.382;2023-08-30T04:35:29;15.39;80.53
65245;DHT22;51846;48.692;2.382;2023-08-30T04:37:55;15.24;81.15
65245;DHT22;51846;48.692;2.382;2023-08-30T04:40:20;15.32;81.08
65245;DHT22;51846;48.692;2.382;2023-08-30T04:42:45;15.39;80.88
65245;DHT22;51846;48.692;2.382;2023-08-30T04:45:11;15.22;82.82
65245;DHT22;51846;48.692;2.382;2023-08-30T04:47:36;14.89;83.83
65245;DHT22;51846;48.692;2.382;2023-08-30T04:50:02;14.79;84.20
65245;DHT22;51846;48.692;2.382;2023-08-30T04:52:27;14.75;84.59
65245;DHT22;51846;48.692;2.382;2023-08-30T04:54:53;14.76;84.31
65245;DHT22;51846;48.692;2.382;2023-08-30T04:57:18;14.68;84.73
65245;DHT22;51846;48.692;2.382;2023-08-30T04:59:44;14.62;85.07
65245;DHT22;51846;48.692;2.382;2023-08-30T05:02:10;14.62;85.34
65245;DHT22;51846;48.692;2.382;2023-08-30T05:04:36;14.65;84.86
65245;DHT22;51846;48.692;2.382;2023-08-30T05:07:01;14.75;85.72
65245;DHT22;51846;48.692;2.382;2023-08-30T05:09:28;14.72;84.99
65245;DHT22;51846;48.692;2.382;2023-08-30T05:11:54;14.69;85.16
65245;DHT22;51846;48.692;2.382;2023-08-30T05:14:20;14.75;85.41
65245;DHT22;51846;48.692;2.382;2023-08-30T05:16:45;14.78;85.27
65245;DHT22;51846;48.692;2.382;2023-08-30T05:19:11;14.89;85.18
65245;DHT22;51846;48.692;2.382;2023-08-30T05:21:36;14.86;84.89
65245;DHT22;51846;48.692;2.382;2023-08-30T05:24:02;14.88;85.33
65245;DHT22;51846;48.692;2.382;2023-08-30T05:26:28;14.90;85.44
65245;DHT22;51846;48.692;2.382;2023-08-30T05:28:53;14.90;85.87
65245;DHT22;51846;48.692;2.382;2023-08-30T05:31:18;14.89;85.87
65245;DHT22;51846;48.692;2.382;2023-08-30T05:33:43;14.83;86.34
65245;DHT22;51846;48.692;2.382;2023-08-30T05:36:09;14.83;86.21
65245;DHT22;51846;48.692;2.382;2023-08-30T05:38:34;14.76;85.62
65245;DHT22;51846;48.692;2.382;2023-08-30T05:40:59;14.69;85.42
65245;DHT22;51846;48.692;2.382;2023-08-30T05:43:25;14.68;85.97
65245;DHT22;51846;48.692;2.382;2023-08-30T05:45:50;14.72;86.28
65245;DHT22;51846;48.692;2.382;2023-08-30T05:48:15;14.69;86.02
65245;DHT22;51846;48.692;2.382;2023-08-30T05:50:41;14.71;86.38
65245;DHT22;51846;48.692;2.382;2023-08-30T05:53:06;14.78;86.14
65245;DHT22;51846;48.692;2.382;2023-08-30T05:55:32;14.95;86.06
65245;DHT22;51846;48.692;2.382;2023-08-30T05:57:57;15.14;85.26
65245;DHT22;51846;48.692;2.382;2023-08-30T06:00:22;15.29;84.81
65245;DHT22;51846;48.692;2.382;2023-08-30T06:02:48;15.34;84.53
65245;DHT22;51846;48.692;2.382;2023-08-30T06:05:16;15.39;83.91
65245;DHT22;51846;48.692;2.382;2023-08-30T06:07:41;15.50;83.46
65245;DHT22;51846;48.692;2.382;2023-08-30T06:10:07;15.65;82.63
65245;DHT22;51846;48.692;2.382;2023-08-30T06:12:32;15.70;82.40
65245;DHT22;51846;48.692;2.382;2023-08-30T06:14:58;15.78;82.30
65245;DHT22;51846;48.692;2.382;2023-08-30T06:17:23;15.85;81.40
65245;DHT22;51846;48.692;2.382;2023-08-30T06:19:48;15.84;81.99
65245;DHT22;51846;48.692;2.382;2023-08-30T06:22:14;15.80;81.49
65245;DHT22;51846;48.692;2.382;2023-08-30T06:24:39;15.81;81.38
65245;DHT22;51846;48.692;2.382;2023-08-30T06:27:05;15.81;81.94
65245;DHT22;51846;48.692;2.382;2023-08-30T06:29:30;15.81;81.85
65245;DHT22;51846;48.692;2.382;2023-08-30T06:31:56;15.80;81.97
65245;DHT22;51846;48.692;2.382;2023-08-30T06:34:21;15.80;82.38
65245;DHT22;51846;48.692;2.382;2023-08-30T06:36:47;15.80;82.74
65245;DHT22;51846;48.692;2.382;2023-08-30T06:39:13;15.77;82.60
65245;DHT22;51846;48.692;2.382;2023-08-30T06:41:38;15.60;84.01
65245;DHT22;51846;48.692;2.382;2023-08-30T06:44:04;15.67;83.73
65245;DHT22;51846;48.692;2.382;2023-08-30T06:46:29;15.44;85.19
65245;DHT22;51846;48.692;2.382;2023-08-30T06:48:54;15.36;85.74
65245;DHT22;51846;48.692;2.382;2023-08-30T06:51:20;15.42;85.22
65245;DHT22;51846;48.692;2.382;2023-08-30T06:53:45;15.53;85.14
65245;DHT22;51846;48.692;2.382;2023-08-30T06:56:12;15.43;85.88
65245;DHT22;51846;48.692;2.382;2023-08-30T06:58:37;15.46;85.81
65245;DHT22;51846;48.692;2.382;2023-08-30T07:01:03;15.58;85.43
65245;DHT22;51846;48.692;2.382;2023-08-30T07:03:28;15.71;84.96
65245;DHT22;51846;48.692;2.382;2023-08-30T07:05:53;15.83;84.51
65245;DHT22;51846;48.692;2.382;2023-08-30T07:08:19;15.84;84.60
65245;DHT22;51846;48.692;2.382;2023-08-30T07:10:44;15.85;85.03
65245;DHT22;51846;48.692;2.382;2023-08-30T07:13:10;15.94;84.75
65245;DHT22;51846;48.692;2.382;2023-08-30T07:15:38;15.97;84.73
65245;DHT22;51846;48.692;2.382;2023-08-30T07:18:04;16.05;83.89
65245;DHT22;51846;48.692;2.382;2023-08-30T07:20:29;16.12;83.48
65245;DHT22;51846;48.692;2.382;2023-08-30T07:22:55;16.15;83.30
65245;DHT22;51846;48.692;2.382;2023-08-30T07:25:20;16.09;83.43
65245;DHT22;51846;48.692;2.382;2023-08-30T07:27:45;16.17;83.18
65245;DHT22;51846;48.692;2.382;2023-08-30T07:30:11;16.17;82.86
65245;DHT22;51846;48.692;2.382;2023-08-30T07:32:36;16.21;82.74
65245;DHT22;51846;48.692;2.382;2023-08-30T07:35:03;16.26;82.65
65245;DHT22;51846;48.692;2.382;2023-08-30T07:37:29;16.33;83.14
65245;DHT22;51846;48.692;2.382;2023-08-30T07:39:55;16.42;82.06
65245;DHT22;51846;48.692;2.382;2023-08-30T07:42:20;16.52;80.98
65245;DHT22;51846;48.692;2.382;2023-08-30T07:44:45;16.49;82.60
65245;DHT22;51846;48.692;2.382;2023-08-30T07:47:11;16.58;81.83
65245;DHT22;51846;48.692;2.382;2023-08-30T07:49:36;16.63;82.00
65245;DHT22;51846;48.692;2.382;2023-08-30T07:52:02;16.58;82.34
65245;DHT22;51846;48.692;2.382;2023-08-30T07:54:28;16.63;81.83
65245;DHT22;51846;48.692;2.382;2023-08-30T07:56:53;16.70;81.64
65245;DHT22;51846;48.692;2.382;2023-08-30T07:59:19;16.77;80.84
65245;DHT22;51846;48.692;2.382;2023-08-30T08:01:44;16.82;80.48
65245;DHT22;51846;48.692;2.382;2023-08-30T08:04:09;16.80;81.25
65245;DHT22;51846;48.692;2.382;2023-08-30T08:06:35;16.90;80.64
65245;DHT22;51846;48.692;2.382;2023-08-30T08:09:00;16.94;81.33
65245;DHT22;51846;48.692;2.382;2023-08-30T08:11:26;17.03;81.34
65245;DHT22;51846;48.692;2.382;2023-08-30T08:13:51;17.12;79.92
65245;DHT22;51846;48.692;2.382;2023-08-30T08:16:17;17.16;79.52
65245;DHT22;51846;48.692;2.382;2023-08-30T08:18:42;17.20;78.93
65245;DHT22;51846;48.692;2.382;2023-08-30T08:21:07;17.20;79.10
65245;DHT22;51846;48.692;2.382;2023-08-30T08:23:33;17.24;78.57
65245;DHT22;51846;48.692;2.382;2023-08-30T08:25:59;17.28;78.92
65245;DHT22;51846;48.692;2.382;2023-08-30T08:28:25;17.34;78.63
65245;DHT22;51846;48.692;2.382;2023-08-30T08:30:50;17.37;77.03
65245;DHT22;51846;48.692;2.382;2023-08-30T08:33:17;17.41;76.93
65245;DHT22;51846;48.692;2.382;2023-08-30T08:35:43;17.45;76.65
65245;DHT22;51846;48.692;2.382;2023-08-30T08:38:09;17.48;76.44
65245;DHT22;51846;48.692;2.382;2023-08-30T08:40:37;17.50;76.77
65245;DHT22;51846;48.692;2.382;2023-08-30T08:43:05;17.53;76.43
65245;DHT22;51846;48.692;2.382;2023-08-30T08:45:32;17.53;74.85
65245;DHT22;51846;48.692;2.382;2023-08-30T08:48:00;17.58;75.60
65245;DHT22;51846;48.692;2.382;2023-08-30T08:50:28;17.64;75.81
65245;DHT22;51846;48.692;2.382;2023-08-30T08:52:54;17.70;74.81
65245;DHT22;51846;48.692;2.382;2023-08-30T08:55:21;17.73;74.25
65245;DHT22;51846;48.692;2.382;2023-08-30T08:57:46;17.74;72.57
65245;DHT22;51846;48.692;2.382;2023-08-30T09:00:13;17.85;72.15
65245;DHT22;51846;48.692;2.382;2023-08-30T09:02:39;17.82;71.12
65245;DHT22;51846;48.692;2.382;2023-08-30T09:05:06;17.84;71.30
65245;DHT22;51846;48.692;2.382;2023-08-30T09:07:32;17.87;71.58
65245;DHT22;51846;48.692;2.382;2023-08-30T09:09:58;17.91;71.33
65245;DHT22;51846;48.692;2.382;2023-08-30T09:12:24;17.95;71.54
65245;DHT22;51846;48.692;2.382;2023-08-30T09:14:56;18.06;71.40
65245;DHT22;51846;48.692;2.382;2023-08-30T09:17:21;18.04;70.81
65245;DHT22;51846;48.692;2.382;2023-08-30T09:19:47;18.11;70.50
65245;DHT22;51846;48.692;2.382;2023-08-30T09:22:12;18.19;69.67
65245;DHT22;51846;48.692;2.382;2023-08-30T09:24:41;18.25;69.18
65245;DHT22;51846;48.692;2.382;2023-08-30T09:27:06;18.31;69.15
65245;DHT22;51846;48.692;2.382;2023-08-30T09:29:32;18.38;68.81
65245;DHT22;51846;48.692;2.382;2023-08-30T09:31:57;18.40;69.68
65245;DHT22;51846;48.692;2.382;2023-08-30T09:34:26;18.48;68.42
65245;DHT22;51846;48.692;2.382;2023-08-30T09:36:52;18.40;69.19
65245;DHT22;51846;48.692;2.382;2023-08-30T09:39:18;18.38;67.81
65245;DHT22;51846;48.692;2.382;2023-08-30T09:41:45;18.35;68.37
65245;DHT22;51846;48.692;2.382;2023-08-30T09:44:18;18.38;68.53
65245;DHT22;51846;48.692;2.382;2023-08-30T09:46:54;18.36;66.84
65245;DHT22;51846;48.692;2.382;2023-08-30T09:49:24;18.42;66.56
65245;DHT22;51846;48.692;2.382;2023-08-30T09:51:51;18.52;65.39
65245;DHT22;51846;48.692;2.382;2023-08-30T09:54:19;18.64;65.64
65245;DHT22;51846;48.692;2.382;2023-08-30T09:56:45;18.72;64.26
65245;DHT22;51846;48.692;2.382;2023-08-30T09:59:11;18.79;64.18
65245;DHT22;51846;48.692;2.382;2023-08-30T10:01:39;18.89;64.49
65245;DHT22;51846;48.692;2.382;2023-08-30T10:04:06;18.96;63.91
65245;DHT22;51846;48.692;2.382;2023-08-30T10:06:32;19.06;63.74
65245;DHT22;51846;48.692;2.382;2023-08-30T10:08:58;19.17;61.63
65245;DHT22;51846;48.692;2.382;2023-08-30T10:11:24;19.14;59.99
65245;DHT22;51846;48.692;2.382;2023-08-30T10:13:51;19.16;59.22
65245;DHT22;51846;48.692;2.382;2023-08-30T10:16:22;19.06;59.77
65245;DHT22;51846;48.692;2.382;2023-08-30T10:18:53;19.11;58.92
65245;DHT22;51846;48.692;2.382;2023-08-30T10:21:20;19.16;58.29
65245;DHT22;51846;48.692;2.382;2023-08-30T10:23:48;19.16;58.41
65245;DHT22;51846;48.692;2.382;2023-08-30T10:26:16;19.28;58.60
65245;DHT22;51846;48.692;2.382;2023-08-30T10:28:42;19.46;59.19
65245;DHT22;51846;48.692;2.382;2023-08-30T10:31:08;19.65;58.73
65245;DHT22;51846;48.692;2.382;2023-08-30T10:34:11;19.81;57.60
65245;DHT22;51846;48.692;2.382;2023-08-30T10:36:34;19.85;54.87
65245;DHT22;51846;48.692;2.382;2023-08-30T10:38:59;19.82;53.89
65245;DHT22;51846;48.692;2.382;2023-08-30T10:41:25;19.85;54.44
65245;DHT22;51846;48.692;2.382;2023-08-30T10:43:52;19.92;53.56
65245;DHT22;51846;48.692;2.382;2023-08-30T10:46:29;19.92;53.87
65245;DHT22;51846;48.692;2.382;2023-08-30T10:48:55;19.99;53.55
65245;DHT22;51846;48.692;2.382;2023-08-30T10:51:35;20.09;52.42
65245;DHT22;51846;48.692;2.382;2023-08-30T10:54:11;20.19;53.77
65245;DHT22;51846;48.692;2.382;2023-08-30T10:56:48;20.37;51.94
65245;DHT22;51846;48.692;2.382;2023-08-30T10:59:21;20.36;50.83
65245;DHT22;51846;48.692;2.382;2023-08-30T11:01:48;20.30;51.51
65245;DHT22;51846;48.692;2.382;2023-08-30T11:04:15;20.33;51.01
65245;DHT22;51846;48.692;2.382;2023-08-30T11:06:45;20.25;50.92
65245;DHT22;51846;48.692;2.382;2023-08-30T11:09:14;20.11;52.23
65245;DHT22;51846;48.692;2.382;2023-08-30T11:11:43;20.12;52.55
65245;DHT22;51846;48.692;2.382;2023-08-30T11:14:12;20.15;52.36
65245;DHT22;51846;48.692;2.382;2023-08-30T11:16:39;20.18;51.80
65245;DHT22;51846;48.692;2.382;2023-08-30T11:19:05;20.13;50.87
65245;DHT22;51846;48.692;2.382;2023-08-30T11:21:32;20.12;50.53
65245;DHT22;51846;48.692;2.382;2023-08-30T11:23:58;20.16;49.24
65245;DHT22;51846;48.692;2.382;2023-08-30T11:26:23;20.11;50.22
65245;DHT22;51846;48.692;2.382;2023-08-30T11:28:49;20.12;50.30
65245;DHT22;51846;48.692;2.382;2023-08-30T11:31:21;20.12;48.53
65245;DHT22;51846;48.692;2.382;2023-08-30T11:33:52;20.09;48.73
65245;DHT22;51846;48.692;2.382;2023-08-30T11:36:19;20.11;47.54
65245;DHT22;51846;48.692;2.382;2023-08-30T11:38:45;20.30;47.81
65245;DHT22;51846;48.692;2.382;2023-08-30T11:41:10;20.47;47.95
65245;DHT22;51846;48.692;2.382;2023-08-30T11:43:36;20.60;48.17
65245;DHT22;51846;48.692;2.382;2023-08-30T11:46:03;20.81;48.01
65245;DHT22;51846;48.692;2.382;2023-08-30T11:48:29;20.94;47.02
65245;DHT22;51846;48.692;2.382;2023-08-30T11:50:54;21.01;48.06
65245;DHT22;51846;48.692;2.382;2023-08-30T11:53:20;20.98;48.19
65245;DHT22;51846;48.692;2.382;2023-08-30T11:55:45;20.93;47.45
65245;DHT22;51846;48.692;2.382;2023-08-30T11:58:10;20.84;48.18
65245;DHT22;51846;48.692;2.382;2023-08-30T12:00:36;20.84;48.75
65245;DHT22;51846;48.692;2.382;2023-08-30T12:03:05;20.86;48.36
65245;DHT22;51846;48.692;2.382;2023-08-30T12:05:30;20.81;47.87
65245;DHT22;51846;48.692;2.382;2023-08-30T12:08:01;20.79;47.28
65245;DHT22;51846;48.692;2.382;2023-08-30T12:10:28;20.70;47.75
65245;DHT22;51846;48.692;2.382;2023-08-30T12:12:55;20.69;47.51
65245;DHT22;51846;48.692;2.382;2023-08-30T12:15:22;20.76;48.59
65245;DHT22;51846;48.692;2.382;2023-08-30T12:17:50;20.84;47.99
65245;DHT22;51846;48.692;2.382;2023-08-30T12:20:16;20.87;47.91
65245;DHT22;51846;48.692;2.382;2023-08-30T12:22:50;21.04;48.13
65245;DHT22;51846;48.692;2.382;2023-08-30T12:25:22;21.23;47.83
65245;DHT22;51846;48.692;2.382;2023-08-30T12:27:52;21.32;48.55
65245;DHT22;51846;48.692;2.382;2023-08-30T12:30:18;21.55;47.70
65245;DHT22;51846;48.692;2.382;2023-08-30T12:32:47;21.47;44.83
65245;DHT22;51846;48.692;2.382;2023-08-30T12:35:12;21.38;45.04
65245;DHT22;51846;48.692;2.382;2023-08-30T12:37:40;21.35;45.78
65245;DHT22;51846;48.692;2.382;2023-08-30T12:40:06;21.28;44.63
65245;DHT22;51846;48.692;2.382;2023-08-30T12:42:33;21.15;44.51
65245;DHT22;51846;48.692;2.382;2023-08-30T12:44:58;21.26;45.02
65245;DHT22;51846;48.692;2.382;2023-08-30T12:47:23;21.35;44.02
65245;DHT22;51846;48.692;2.382;2023-08-30T12:49:48;21.48;43.53
65245;DHT22;51846;48.692;2.382;2023-08-30T12:52:14;21.51;43.72
65245;DHT22;51846;48.692;2.382;2023-08-30T12:54:41;21.61;43.65
65245;DHT22;51846;48.692;2.382;2023-08-30T12:57:06;21.69;43.51
65245;DHT22;51846;48.692;2.382;2023-08-30T12:59:32;21.79;44.28
65245;DHT22;51846;48.692;2.382;2023-08-30T13:01:57;21.83;43.63
65245;DHT22;51846;48.692;2.382;2023-08-30T13:04:23;21.92;43.90
65245;DHT22;51846;48.692;2.382;2023-08-30T13:06:48;22.05;42.39
65245;DHT22;51846;48.692;2.382;2023-08-30T13:09:13;22.03;43.57
65245;DHT22;51846;48.692;2.382;2023-08-30T13:11:39;21.86;43.30
65245;DHT22;51846;48.692;2.382;2023-08-30T13:14:04;21.71;45.23
65245;DHT22;51846;48.692;2.382;2023-08-30T13:16:29;21.57;46.00
65245;DHT22;51846;48.692;2.382;2023-08-30T13:18:54;21.54;47.38
65245;DHT22;51846;48.692;2.382;2023-08-30T13:21:20;21.62;47.61
65245;DHT22;51846;48.692;2.382;2023-08-30T13:23:45;21.62;47.64
65245;DHT22;51846;48.692;2.382;2023-08-30T13:26:10;21.62;47.57
65245;DHT22;51846;48.692;2.382;2023-08-30T13:28:36;21.54;46.88
65245;DHT22;51846;48.692;2.382;2023-08-30T13:31:01;21.57;46.69
65245;DHT22;51846;48.692;2.382;2023-08-30T13:33:26;21.55;45.64
65245;DHT22;51846;48.692;2.382;2023-08-30T13:35:52;21.63;45.77
65245;DHT22;51846;48.692;2.382;2023-08-30T13:38:18;21.75;46.36
65245;DHT22;51846;48.692;2.382;2023-08-30T13:40:44;21.59;48.53
65245;DHT22;51846;48.692;2.382;2023-08-30T13:43:09;21.45;49.27
65245;DHT22;51846;48.692;2.382;2023-08-30T13:45:34;21.28;48.90
65245;DHT22;51846;48.692;2.382;2023-08-30T13:48:00;21.21;49.00
65245;DHT22;51846;48.692;2.382;2023-08-30T13:50:26;21.17;48.84
65245;DHT22;51846;48.692;2.382;2023-08-30T13:52:56;21.06;47.93
65245;DHT22;51846;48.692;2.382;2023-08-30T13:55:21;21.00;48.68
65245;DHT22;51846;48.692;2.382;2023-08-30T13:57:47;21.06;49.03
65245;DHT22;51846;48.692;2.382;2023-08-30T14:00:13;21.07;47.89
65245;DHT22;51846;48.692;2.382;2023-08-30T14:02:38;21.06;48.41
65245;DHT22;51846;48.692;2.382;2023-08-30T14:05:04;21.12;48.08
65245;DHT22;51846;48.692;2.382;2023-08-30T14:07:29;21.24;47.87
65245;DHT22;51846;48.692;2.382;2023-08-30T14:09:55;21.27;47.77
65245;DHT22;51846;48.692;2.382;2023-08-30T14:12:20;21.28;46.88
65245;DHT22;51846;48.692;2.382;2023-08-30T14:14:45;21.28;47.08
65245;DHT22;51846;48.692;2.382;2023-08-30T14:17:11;21.37;46.96
65245;DHT22;51846;48.692;2.382;2023-08-30T14:19:37;21.32;46.52
65245;DHT22;51846;48.692;2.382;2023-08-30T14:22:03;21.20;47.18
65245;DHT22;51846;48.692;2.382;2023-08-30T14:24:30;21.12;47.00
65245;DHT22;51846;48.692;2.382;2023-08-30T14:26:56;21.11;46.08
65245;DHT22;51846;48.692;2.382;2023-08-30T14:29:21;21.04;46.80
65245;DHT22;51846;48.692;2.382;2023-08-30T14:31:48;21.06;47.19
65245;DHT22;51846;48.692;2.382;2023-08-30T14:34:14;21.20;47.74
65245;DHT22;51846;48.692;2.382;2023-08-30T14:36:39;21.28;48.24
65245;DHT22;51846;48.692;2.382;2023-08-30T14:39:06;21.31;48.62
65245;DHT22;51846;48.692;2.382;2023-08-30T14:41:31;21.35;48.29
65245;DHT22;51846;48.692;2.382;2023-08-30T14:43:58;21.41;47.89
65245;DHT22;51846;48.692;2.382;2023-08-30T14:46:23;21.34;47.77
65245;DHT22;51846;48.692;2.382;2023-08-30T14:48:48;21.28;47.56
65245;DHT22;51846;48.692;2.382;2023-08-30T14:51:14;21.26;47.71
65245;DHT22;51846;48.692;2.382;2023-08-30T14:53:39;21.48;47.00
65245;DHT22;51846;48.692;2.382;2023-08-30T14:56:04;21.68;46.24
65245;DHT22;51846;48.692;2.382;2023-08-30T14:58:32;21.78;46.64
65245;DHT22;51846;48.692;2.382;2023-08-30T15:00:58;21.86;47.13
65245;DHT22;51846;48.692;2.382;2023-08-30T15:03:24;21.88;46.79
65245;DHT22;51846;48.692;2.382;2023-08-30T15:05:52;21.77;46.08
65245;DHT22;51846;48.692;2.382;2023-08-30T15:08:19;21.65;46.87
65245;DHT22;51846;48.692;2.382;2023-08-30T15:10:44;21.41;46.44
65245;DHT22;51846;48.692;2.382;2023-08-30T15:13:10;21.31;47.57
65245;DHT22;51846;48.692;2.382;2023-08-30T15:15:35;21.37;47.41
65245;DHT22;51846;48.692;2.382;2023-08-30T15:18:00;21.38;46.89
65245;DHT22;51846;48.692;2.382;2023-08-30T15:20:26;21.32;47.27
65245;DHT22;51846;48.692;2.382;2023-08-30T15:22:51;21.27;47.70
65245;DHT22;51846;48.692;2.382;2023-08-30T15:25:17;21.11;47.14
65245;DHT22;51846;48.692;2.382;2023-08-30T15:27:42;21.04;46.93